sensor_id;sensor_type;location;lat;lon;timestamp;temperature;humidity
46340;DHT22;47273;49.274;8.708;2022-11-20T05:01:11;6.20;99.90
46340;DHT22;47273;49.274;8.708;2022-11-20T05:03:38;6.10;99.90
46340;DHT22;47273;49.274;8.708;2022-11-20T05:06:05;6.10;99.90
46340;DHT22;47273;49.274;8.708;2022-11-20T05:08:32;6.20;99.90
46340;DHT22;47273;49.274;8.708;2022-11-20T05:11:02;6.20;99.90
46340;DHT22;47273;49.274;8.708;2022-11-20T05:13:28;6.30;99.90
46340;DHT22;47273;49.274;8.708;2022-11-20T05:15:54;6.30;99.90
46340;DHT22;47273;49.274;8.708;2022-11-20T05:18:20;6.20;99.90
46340;DHT22;47273;49.274;8.708;2022-11-20T05:20:45;6.20;99.90
46340;DHT22;47273;49.274;8.708;2022-11-20T05:23:11;6.20;99.90
46340;DHT22;47273;49.274;8.708;2022-11-20T05:25:36;6.20;99.90
46340;DHT22;47273;49.274;8.708;2022-11-20T05:28:02;6.20;99.90
46340;DHT22;47273;49.274;8.708;2022-11-20T05:30:28;6.30;99.90
46340;DHT22;47273;49.274;8.708;2022-11-20T05:32:54;6.30;99.90
46340;DHT22;47273;49.274;8.708;2022-11-20T05:35:20;6.30;99.90
46340;DHT22;47273;49.274;8.708;2022-11-20T05:37:45;6.30;99.90
46340;DHT22;47273;49.274;8.708;2022-11-20T05:40:11;6.30;99.90
46340;DHT22;47273;49.274;8.708;2022-11-20T05:42:37;6.30;99.90
46340;DHT22;47273;49.274;8.708;2022-11-20T05:45:04;6.30;99.90
46340;DHT22;47273;49.274;8.708;2022-11-20T05:47:33;6.40;99.90
46340;DHT22;47273;49.274;8.708;2022-11-20T05:50:00;6.40;99.90
46340;DHT22;47273;49.274;8.708;2022-11-20T05:52:28;6.40;99.90
46340;DHT22;47273;49.274;8.708;2022-11-20T05:54:54;6.50;99.90
46340;DHT22;47273;49.274;8.708;2022-11-20T05:57:20;6.50;99.90
46340;DHT22;47273;49.274;8.708;2022-11-20T05:59:45;6.40;99.90
46340;DHT22;47273;49.274;8.708;2022-11-20T06:02:11;6.50;99.90
46340;DHT22;47273;49.274;8.708;2022-11-20T06:04:37;6.50;99.90
46340;DHT22;47273;49.274;8.708;2022-11-20T06:07:04;6.50;99.90
46340;DHT22;47273;49.274;8.708;2022-11-20T06:09:29;6.50;99.90
46340;DHT22;47273;49.274;8.708;2022-11-20T06:11:55;6.50;99.90
46340;DHT22;47273;49.274;8.708;2022-11-20T06:14:21;6.50;99.90
46340;DHT22;47273;49.274;8.708;2022-11-20T06:16:47;6.50;99.90
46340;DHT22;47273;49.274;8.708;2022-11-20T06:19:12;6.50;99.90
46340;DHT22;47273;49.274;8.708;2022-11-20T06:21:38;6.60;99.90
46340;DHT22;47273;49.274;8.708;2022-11-20T06:24:04;6.50;99.90
46340;DHT22;47273;49.274;8.708;2022-11-20T06:26:30;6.60;99.90
46340;DHT22;47273;49.274;8.708;2022-11-20T06:28:56;6.60;99.90
46340;DHT22;47273;49.274;8.708;2022-11-20T06:31:24;6.60;99.90
46340;DHT22;47273;49.274;8.708;2022-11-20T06:33:50;6.60;99.90
46340;DHT22;47273;49.274;8.708;2022-11-20T06:36:18;6.70;99.90
46340;DHT22;47273;49.274;8.708;2022-11-20T06:38:45;6.60;99.90
46340;DHT22;47273;49.274;8.708;2022-11-20T06:41:14;6.70;99.90
46340;DHT22;47273;49.274;8.708;2022-11-20T06:43:40;6.70;99.90
46340;DHT22;47273;49.274;8.708;2022-11-20T06:46:06;6.70;99.90
46340;DHT22;47273;49.274;8.708;2022-11-20T06:48:32;6.70;99.90
46340;DHT22;47273;49.274;8.708;2022-11-20T06:50:58;6.70;99.90
46340;DHT22;47273;49.274;8.708;2022-11-20T06:53:24;6.70;99.90
46340;DHT22;47273;49.274;8.708;2022-11-20T06:55:52;6.80;99.90
46340;DHT22;47273;49.274;8.708;2022-11-20T06:58:18;6.80;99.90
46340;DHT22;47273;49.274;8.708;2022-11-20T07:00:43;6.80;99.90
46340;DHT22;47273;49.274;8.708;2022-11-20T07:03:11;6.80;99.90
46340;DHT22;47273;49.274;8.708;2022-11-20T07:05:37;6.80;99.90
46340;DHT22;47273;49.274;8.708;2022-11-20T07:08:04;6.80;99.90
46340;DHT22;47273;49.274;8.708;2022-11-20T07:10:30;6.80;99.90
46340;DHT22;47273;49.274;8.708;2022-11-20T07:12:55;6.80;99.90
46340;DHT22;47273;49.274;8.708;2022-11-20T07:15:22;6.90;99.90
46340;DHT22;47273;49.274;8.708;2022-11-20T07:17:48;6.90;99.90
46340;DHT22;47273;49.274;8.708;2022-11-20T07:20:15;6.90;99.90
46340;DHT22;47273;49.274;8.708;2022-11-20T07:22:41;6.90;99.90
46340;DHT22;47273;49.274;8.708;2022-11-20T07:25:07;6.90;99.90
46340;DHT22;47273;49.274;8.708;2022-11-20T07:27:33;6.90;99.90
46340;DHT22;47273;49.274;8.708;2022-11-20T07:29:59;7.00;99.90
46340;DHT22;47273;49.274;8.708;2022-11-20T07:32:25;7.00;99.90
46340;DHT22;47273;49.274;8.708;2022-11-20T07:34:51;7.10;99.90
46340;DHT22;47273;49.274;8.708;2022-11-20T07:37:17;7.10;99.90
46340;DHT22;47273;49.274;8.708;2022-11-20T07:39:43;7.10;99.90
46340;DHT22;47273;49.274;8.708;2022-11-20T07:42:09;7.20;99.90
46340;DHT22;47273;49.274;8.708;2022-11-20T07:44:35;7.20;99.90
46340;DHT22;47273;49.274;8.708;2022-11-20T07:47:01;7.30;99.90
46340;DHT22;47273;49.274;8.708;2022-11-20T07:49:27;7.30;99.90
46340;DHT22;47273;49.274;8.708;2022-11-20T07:51:53;7.30;99.90
46340;DHT22;47273;49.274;8.708;2022-11-20T07:54:19;7.40;99.90
46340;DHT22;47273;49.274;8.708;2022-11-20T07:56:46;7.40;99.90
46340;DHT22;47273;49.274;8.708;2022-11-20T07:59:12;7.40;99.90
46340;DHT22;47273;49.274;8.708;2022-11-20T08:01:38;7.40;99.90
46340;DHT22;47273;49.274;8.708;2022-11-20T08:04:04;7.50;99.90
46340;DHT22;47273;49.274;8.708;2022-11-20T08:06:30;7.50;99.90
46340;DHT22;47273;49.274;8.708;2022-11-20T08:08:56;7.50;99.90
46340;DHT22;47273;49.274;8.708;2022-11-20T08:11:21;7.50;99.90
46340;DHT22;47273;49.274;8.708;2022-11-20T08:14:15;7.60;99.90
46340;DHT22;47273;49.274;8.708;2022-11-20T08:16:46;7.60;99.90
46340;DHT22;47273;49.274;8.708;2022-11-20T08:19:17;7.60;99.90
46340;DHT22;47273;49.274;8.708;2022-11-20T08:21:43;7.60;99.90
46340;DHT22;47273;49.274;8.708;2022-11-20T08:24:10;7.60;99.90
46340;DHT22;47273;49.274;8.708;2022-11-20T08:26:37;7.70;99.90
46340;DHT22;47273;49.274;8.708;2022-11-20T08:29:04;7.70;99.90
46340;DHT22;47273;49.274;8.708;2022-11-20T08:31:30;7.70;99.90
46340;DHT22;47273;49.274;8.708;2022-11-20T08:33:56;7.70;99.90
46340;DHT22;47273;49.274;8.708;2022-11-20T08:36:22;7.70;99.90
46340;DHT22;47273;49.274;8.708;2022-11-20T08:38:52;7.70;99.90
46340;DHT22;47273;49.274;8.708;2022-11-20T08:41:18;7.80;99.90
46340;DHT22;47273;49.274;8.708;2022-11-20T08:43:52;7.80;99.90
46340;DHT22;47273;49.274;8.708;2022-11-20T08:46:18;7.90;99.90
46340;DHT22;47273;49.274;8.708;2022-11-20T08:48:45;7.90;99.90
46340;DHT22;47273;49.274;8.708;2022-11-20T08:51:11;7.90;99.90
46340;DHT22;47273;49.274;8.708;2022-11-20T08:53:38;8.00;99.90
46340;DHT22;47273;49.274;8.708;2022-11-20T08:56:04;8.00;99.90
46340;DHT22;47273;49.274;8.708;2022-11-20T08:58:30;8.00;99.90
46340;DHT22;47273;49.274;8.708;2022-11-20T09:00:56;8.00;99.90
46340;DHT22;47273;49.274;8.708;2022-11-20T09:03:22;8.00;99.90
46340;DHT22;47273;49.274;8.708;2022-11-20T09:05:48;8.00;99.90
46340;DHT22;47273;49.274;8.708;2022-11-20T09:08:14;8.00;99.90
46340;DHT22;47273;49.274;8.708;2022-11-20T09:10:39;8.00;99.90
46340;DHT22;47273;49.274;8.708;2022-11-20T09:13:05;8.10;99.90
46340;DHT22;47273;49.274;8.708;2022-11-20T09:15:31;8.10;99.90
46340;DHT22;47273;49.274;8.708;2022-11-20T09:18:00;8.10;99.90
46340;DHT22;47273;49.274;8.708;2022-11-20T09:20:27;8.10;99.90
46340;DHT22;47273;49.274;8.708;2022-11-20T09:22:55;8.10;99.90
46340;DHT22;47273;49.274;8.708;2022-11-20T09:25:21;8.10;99.90
46340;DHT22;47273;49.274;8.708;2022-11-20T09:27:47;8.10;99.90
46340;DHT22;47273;49.274;8.708;2022-11-20T09:30:14;8.10;99.90
46340;DHT22;47273;49.274;8.708;2022-11-20T09:32:40;8.10;99.90
46340;DHT22;47273;49.274;8.708;2022-11-20T09:35:06;8.20;99.90
46340;DHT22;47273;49.274;8.708;2022-11-20T09:37:32;8.30;99.90
46340;DHT22;47273;49.274;8.708;2022-11-20T09:39:57;8.20;99.90
46340;DHT22;47273;49.274;8.708;2022-11-20T09:51:35;8.30;99.90
46340;DHT22;47273;49.274;8.708;2022-11-20T09:54:19;8.30;99.90
46340;DHT22;47273;49.274;8.708;2022-11-20T09:56:50;8.30;99.90
46340;DHT22;47273;49.274;8.708;2022-11-20T10:02:27;8.40;99.90
46340;DHT22;47273;49.274;8.708;2022-11-20T10:05:18;8.40;99.90
46340;DHT22;47273;49.274;8.708;2022-11-20T10:22:06;8.40;99.90
46340;DHT22;47273;49.274;8.708;2022-11-20T10:30:01;8.40;99.90
46340;DHT22;47273;49.274;8.708;2022-11-20T10:32:35;8.40;99.90
46340;DHT22;47273;49.274;8.708;2022-11-20T10:35:07;8.50;99.90
46340;DHT22;47273;49.274;8.708;2022-11-20T10:37:44;8.50;99.90
46340;DHT22;47273;49.274;8.708;2022-11-20T10:42:44;8.50;99.90
46340;DHT22;47273;49.274;8.708;2022-11-20T10:48:24;8.50;99.90
46340;DHT22;47273;49.274;8.708;2022-11-20T10:53:42;8.50;99.90
46340;DHT22;47273;49.274;8.708;2022-11-20T10:56:50;8.50;99.90
46340;DHT22;47273;49.274;8.708;2022-11-20T11:01:50;8.60;99.90
46340;DHT22;47273;49.274;8.708;2022-11-20T11:07:05;8.60;99.90
46340;DHT22;47273;49.274;8.708;2022-11-20T11:09:36;8.70;99.90
46340;DHT22;47273;49.274;8.708;2022-11-20T11:12:07;8.70;99.90
46340;DHT22;47273;49.274;8.708;2022-11-20T11:14:42;8.80;99.90
46340;DHT22;47273;49.274;8.708;2022-11-20T11:17:28;8.80;99.90
46340;DHT22;47273;49.274;8.708;2022-11-20T11:20:03;8.80;99.90
46340;DHT22;47273;49.274;8.708;2022-11-20T11:22:56;8.80;99.90
46340;DHT22;47273;49.274;8.708;2022-11-20T11:25:34;8.90;99.90
46340;DHT22;47273;49.274;8.708;2022-11-20T11:30:44;8.90;99.90
46340;DHT22;47273;49.274;8.708;2022-11-20T11:33:17;9.00;99.90
46340;DHT22;47273;49.274;8.708;2022-11-20T11:36:04;9.00;99.90
46340;DHT22;47273;49.274;8.708;2022-11-20T11:38:38;9.10;99.90
46340;DHT22;47273;49.274;8.708;2022-11-20T11:41:07;9.20;99.90
46340;DHT22;47273;49.274;8.708;2022-11-20T11:43:36;9.20;99.90
46340;DHT22;47273;49.274;8.708;2022-11-20T11:49:00;9.20;99.90
46340;DHT22;47273;49.274;8.708;2022-11-20T11:51:39;9.30;99.90
46340;DHT22;47273;49.274;8.708;2022-11-20T11:54:25;9.40;99.90
46340;DHT22;47273;49.274;8.708;2022-11-20T11:56:53;9.50;99.90
46340;DHT22;47273;49.274;8.708;2022-11-20T11:59:27;9.40;99.90
46340;DHT22;47273;49.274;8.708;2022-11-20T12:01:59;9.50;99.90
46340;DHT22;47273;49.274;8.708;2022-11-20T12:07:10;9.50;99.90
46340;DHT22;47273;49.274;8.708;2022-11-20T12:09:43;9.50;99.90
46340;DHT22;47273;49.274;8.708;2022-11-20T12:12:19;9.50;99.90
46340;DHT22;47273;49.274;8.708;2022-11-20T12:14:47;9.50;99.90
46340;DHT22;47273;49.274;8.708;2022-11-20T12:17:15;9.50;99.90
46340;DHT22;47273;49.274;8.708;2022-11-20T12:19:41;9.40;99.90
46340;DHT22;47273;49.274;8.708;2022-11-20T12:30:16;9.40;99.90
46340;DHT22;47273;49.274;8.708;2022-11-20T12:43:34;10.90;99.90
46340;DHT22;47273;49.274;8.708;2022-11-20T12:46:44;11.40;99.90
46340;DHT22;47273;49.274;8.708;2022-11-20T12:49:24;11.40;99.90
46340;DHT22;47273;49.274;8.708;2022-11-20T12:52:43;11.10;99.90
46340;DHT22;47273;49.274;8.708;2022-11-20T12:58:12;11.70;99.90
46340;DHT22;47273;49.274;8.708;2022-11-20T13:01:00;11.60;99.90
46340;DHT22;47273;49.274;8.708;2022-11-20T13:06:17;11.30;99.90
46340;DHT22;47273;49.274;8.708;2022-11-20T13:08:50;11.30;99.90
46340;DHT22;47273;49.274;8.708;2022-11-20T13:14:15;10.90;99.90
46340;DHT22;47273;49.274;8.708;2022-11-20T13:19:17;10.90;99.90
46340;DHT22;47273;49.274;8.708;2022-11-20T13:21:48;10.90;99.90
46340;DHT22;47273;49.274;8.708;2022-11-20T13:24:21;11.30;99.90
46340;DHT22;47273;49.274;8.708;2022-11-20T13:29:32;11.20;99.90
46340;DHT22;47273;49.274;8.708;2022-11-20T13:32:16;11.60;99.90
46340;DHT22;47273;49.274;8.708;2022-11-20T13:35:03;12.70;95.90
46340;DHT22;47273;49.274;8.708;2022-11-20T13:37:33;12.80;95.00
46340;DHT22;47273;49.274;8.708;2022-11-20T13:40:25;12.10;95.50
46340;DHT22;47273;49.274;8.708;2022-11-20T13:45:27;11.20;97.50
46340;DHT22;47273;49.274;8.708;2022-11-20T13:47:55;11.20;98.00
46340;DHT22;47273;49.274;8.708;2022-11-20T13:58:52;11.40;95.30
46340;DHT22;47273;49.274;8.708;2022-11-20T14:01:28;11.20;95.30
46340;DHT22;47273;49.274;8.708;2022-11-20T14:03:55;11.00;94.80
46340;DHT22;47273;49.274;8.708;2022-11-20T14:06:27;10.80;95.70
46340;DHT22;47273;49.274;8.708;2022-11-20T14:08:54;10.70;95.30
46340;DHT22;47273;49.274;8.708;2022-11-20T14:11:21;10.60;96.20
46340;DHT22;47273;49.274;8.708;2022-11-20T14:16:36;10.40;96.60
46340;DHT22;47273;49.274;8.708;2022-11-20T14:21:47;10.30;97.80
46340;DHT22;47273;49.274;8.708;2022-11-20T14:24:18;10.20;96.60
46340;DHT22;47273;49.274;8.708;2022-11-20T14:26:45;10.10;96.80
46340;DHT22;47273;49.274;8.708;2022-11-20T14:29:19;10.10;96.80
46340;DHT22;47273;49.274;8.708;2022-11-20T14:31:47;10.10;97.60
46340;DHT22;47273;49.274;8.708;2022-11-20T14:34:25;10.00;97.10
46340;DHT22;47273;49.274;8.708;2022-11-20T14:37:12;10.00;97.50
46340;DHT22;47273;49.274;8.708;2022-11-20T14:39:47;9.90;97.10
46340;DHT22;47273;49.274;8.708;2022-11-20T14:42:25;9.80;97.10
46340;DHT22;47273;49.274;8.708;2022-11-20T14:44:54;9.80;98.20
46340;DHT22;47273;49.274;8.708;2022-11-20T14:47:26;9.80;97.60
46340;DHT22;47273;49.274;8.708;2022-11-20T14:49:53;9.70;97.30
46340;DHT22;47273;49.274;8.708;2022-11-20T14:52:22;9.70;97.50
46340;DHT22;47273;49.274;8.708;2022-11-20T14:54:50;9.70;97.20
46340;DHT22;47273;49.274;8.708;2022-11-20T14:57:25;9.60;98.20
46340;DHT22;47273;49.274;8.708;2022-11-20T15:00:03;9.60;98.10
46340;DHT22;47273;49.274;8.708;2022-11-20T15:02:30;9.60;99.40
46340;DHT22;47273;49.274;8.708;2022-11-20T15:05:00;9.60;99.40
46340;DHT22;47273;49.274;8.708;2022-11-20T15:07:32;9.60;99.30
46340;DHT22;47273;49.274;8.708;2022-11-20T15:10:11;9.50;99.20
46340;DHT22;47273;49.274;8.708;2022-11-20T15:12:49;9.50;99.20
46340;DHT22;47273;49.274;8.708;2022-11-20T15:15:19;9.50;99.90
46340;DHT22;47273;49.274;8.708;2022-11-20T15:17:46;9.50;99.80
46340;DHT22;47273;49.274;8.708;2022-11-20T15:20:14;9.40;99.90
46340;DHT22;47273;49.274;8.708;2022-11-20T15:22:41;9.40;99.90
46340;DHT22;47273;49.274;8.708;2022-11-20T15:25:14;9.40;99.90
46340;DHT22;47273;49.274;8.708;2022-11-20T15:27:41;9.40;99.90
46340;DHT22;47273;49.274;8.708;2022-11-20T15:30:16;9.30;99.90
46340;DHT22;47273;49.274;8.708;2022-11-20T15:32:43;9.30;99.90
46340;DHT22;47273;49.274;8.708;2022-11-20T15:35:09;9.30;99.90
46340;DHT22;47273;49.274;8.708;2022-11-20T15:37:39;9.30;99.90
46340;DHT22;47273;49.274;8.708;2022-11-20T15:40:06;9.30;99.90
46340;DHT22;47273;49.274;8.708;2022-11-20T15:42:32;9.30;99.90
46340;DHT22;47273;49.274;8.708;2022-11-20T15:44:58;9.20;99.90
46340;DHT22;47273;49.274;8.708;2022-11-20T15:47:34;9.20;99.90
46340;DHT22;47273;49.274;8.708;2022-11-20T15:50:01;9.10;99.90
46340;DHT22;47273;49.274;8.708;2022-11-20T15:52:26;9.10;99.90
46340;DHT22;47273;49.274;8.708;2022-11-20T15:54:52;9.10;99.90
46340;DHT22;47273;49.274;8.708;2022-11-20T15:57:18;9.10;99.90
46340;DHT22;47273;49.274;8.708;2022-11-20T15:59:43;9.00;99.90
46340;DHT22;47273;49.274;8.708;2022-11-20T16:02:13;9.00;99.90
46340;DHT22;47273;49.274;8.708;2022-11-20T16:04:38;9.00;99.90
46340;DHT22;47273;49.274;8.708;2022-11-20T16:07:04;9.00;99.90
46340;DHT22;47273;49.274;8.708;2022-11-20T16:09:30;8.90;99.90
46340;DHT22;47273;49.274;8.708;2022-11-20T16:11:56;8.90;99.90
46340;DHT22;47273;49.274;8.708;2022-11-20T16:14:23;8.90;99.90
46340;DHT22;47273;49.274;8.708;2022-11-20T16:17:07;8.80;99.90
46340;DHT22;47273;49.274;8.708;2022-11-20T16:19:33;8.90;99.90
46340;DHT22;47273;49.274;8.708;2022-11-20T16:21:58;8.90;99.90
46340;DHT22;47273;49.274;8.708;2022-11-20T16:24:26;8.90;99.90
46340;DHT22;47273;49.274;8.708;2022-11-20T16:26:53;8.90;99.90
46340;DHT22;47273;49.274;8.708;2022-11-20T16:29:19;8.90;99.90
46340;DHT22;47273;49.274;8.708;2022-11-20T16:31:45;8.90;99.90
46340;DHT22;47273;49.274;8.708;2022-11-20T16:34:11;8.90;99.90
46340;DHT22;47273;49.274;8.708;2022-11-20T16:36:39;8.90;99.90
46340;DHT22;47273;49.274;8.708;2022-11-20T16:39:06;8.90;99.90
46340;DHT22;47273;49.274;8.708;2022-11-20T16:41:33;8.90;99.90
46340;DHT22;47273;49.274;8.708;2022-11-20T16:44:00;8.90;99.90
46340;DHT22;47273;49.274;8.708;2022-11-20T16:46:28;8.80;99.90
46340;DHT22;47273;49.274;8.708;2022-11-20T16:49:03;8.80;99.90
46340;DHT22;47273;49.274;8.708;2022-11-20T16:51:30;8.80;99.90
46340;DHT22;47273;49.274;8.708;2022-11-20T16:53:56;8.80;99.90
46340;DHT22;47273;49.274;8.708;2022-11-20T16:56:24;8.80;99.90
46340;DHT22;47273;49.274;8.708;2022-11-20T16:58:51;8.80;99.90
46340;DHT22;47273;49.274;8.708;2022-11-20T17:01:19;8.90;99.90
46340;DHT22;47273;49.274;8.708;2022-11-20T17:03:47;8.80;99.90
46340;DHT22;47273;49.274;8.708;2022-11-20T17:06:20;8.80;99.90
46340;DHT22;47273;49.274;8.708;2022-11-20T17:08:46;8.80;99.90
46340;DHT22;47273;49.274;8.708;2022-11-20T17:11:15;8.90;99.90
46340;DHT22;47273;49.274;8.708;2022-11-20T17:13:41;8.90;99.90
46340;DHT22;47273;49.274;8.708;2022-11-20T17:16:09;8.90;99.90
46340;DHT22;47273;49.274;8.708;2022-11-20T17:18:35;8.90;99.90
46340;DHT22;47273;49.274;8.708;2022-11-20T17:21:01;8.80;99.90
46340;DHT22;47273;49.274;8.708;2022-11-20T17:23:31;8.90;99.90
46340;DHT22;47273;49.274;8.708;2022-11-20T17:26:04;8.90;99.90
46340;DHT22;47273;49.274;8.708;2022-11-20T17:28:31;8.80;99.90
46340;DHT22;47273;49.274;8.708;2022-11-20T17:31:05;8.80;99.90
46340;DHT22;47273;49.274;8.708;2022-11-20T17:33:34;8.80;99.90
46340;DHT22;47273;49.274;8.708;2022-11-20T17:36:00;8.80;99.90
46340;DHT22;47273;49.274;8.708;2022-11-20T17:38:25;8.80;99.90
46340;DHT22;47273;49.274;8.708;2022-11-20T17:40:51;8.80;99.90
46340;DHT22;47273;49.274;8.708;2022-11-20T17:43:17;8.80;99.90
46340;DHT22;47273;49.274;8.708;2022-11-20T17:45:43;8.80;99.90
46340;DHT22;47273;49.274;8.708;2022-11-20T17:48:09;8.70;99.90
46340;DHT22;47273;49.274;8.708;2022-11-20T17:50:35;8.70;99.90
46340;DHT22;47273;49.274;8.708;2022-11-20T17:53:01;8.70;99.90
46340;DHT22;47273;49.274;8.708;2022-11-20T17:55:26;8.60;99.90
46340;DHT22;47273;49.274;8.708;2022-11-20T17:58:12;8.60;99.90
46340;DHT22;47273;49.274;8.708;2022-11-20T18:00:38;8.60;99.90
46340;DHT22;47273;49.274;8.708;2022-11-20T18:03:03;8.60;99.90
46340;DHT22;47273;49.274;8.708;2022-11-20T18:05:29;8.60;99.90
46340;DHT22;47273;49.274;8.708;2022-11-20T18:07:55;8.60;99.90
46340;DHT22;47273;49.274;8.708;2022-11-20T18:10:20;8.60;99.90
46340;DHT22;47273;49.274;8.708;2022-11-20T18:12:46;8.60;99.90
46340;DHT22;47273;49.274;8.708;2022-11-20T18:15:12;8.60;99.90
46340;DHT22;47273;49.274;8.708;2022-11-20T18:17:38;8.60;99.90
46340;DHT22;47273;49.274;8.708;2022-11-20T18:20:05;8.60;99.90
46340;DHT22;47273;49.274;8.708;2022-11-20T18:22:30;8.50;99.90
46340;DHT22;47273;49.274;8.708;2022-11-20T18:24:56;8.50;99.90
46340;DHT22;47273;49.274;8.708;2022-11-20T18:27:22;8.40;99.90
46340;DHT22;47273;49.274;8.708;2022-11-20T18:29:48;8.40;99.90
46340;DHT22;47273;49.274;8.708;2022-11-20T18:32:17;8.40;99.90
46340;DHT22;47273;49.274;8.708;2022-11-20T18:34:42;8.40;99.90
46340;DHT22;47273;49.274;8.708;2022-11-20T18:37:08;8.40;99.90
46340;DHT22;47273;49.274;8.708;2022-11-20T18:39:34;8.40;99.90
46340;DHT22;47273;49.274;8.708;2022-11-20T18:42:00;8.40;99.90
46340;DHT22;47273;49.274;8.708;2022-11-20T18:44:44;8.40;99.90
46340;DHT22;47273;49.274;8.708;2022-11-20T18:47:29;8.30;99.90
46340;DHT22;47273;49.274;8.708;2022-11-20T18:49:59;8.30;99.90
46340;DHT22;47273;49.274;8.708;2022-11-20T18:52:30;8.30;99.90
46340;DHT22;47273;49.274;8.708;2022-11-20T18:55:03;8.30;99.90
46340;DHT22;47273;49.274;8.708;2022-11-20T18:57:30;8.30;99.90
46340;DHT22;47273;49.274;8.708;2022-11-20T18:59:56;8.30;99.90
46340;DHT22;47273;49.274;8.708;2022-11-20T19:02:26;8.30;99.90
46340;DHT22;47273;49.274;8.708;2022-11-20T19:04:53;8.40;99.90
46340;DHT22;47273;49.274;8.708;2022-11-20T19:07:18;8.40;99.90
46340;DHT22;47273;49.274;8.708;2022-11-20T19:09:48;8.40;99.90
46340;DHT22;47273;49.274;8.708;2022-11-20T19:12:14;8.40;99.90
46340;DHT22;47273;49.274;8.708;2022-11-20T19:14:40;8.40;99.90
46340;DHT22;47273;49.274;8.708;2022-11-20T19:17:06;8.40;99.90
46340;DHT22;47273;49.274;8.708;2022-11-20T19:19:35;8.40;99.90
46340;DHT22;47273;49.274;8.708;2022-11-20T19:22:01;8.40;99.90
46340;DHT22;47273;49.274;8.708;2022-11-20T19:24:28;8.40;99.90
46340;DHT22;47273;49.274;8.708;2022-11-20T19:26:54;8.30;99.90
46340;DHT22;47273;49.274;8.708;2022-11-20T19:29:21;8.40;99.90
46340;DHT22;47273;49.274;8.708;2022-11-20T19:31:47;8.40;99.90
46340;DHT22;47273;49.274;8.708;2022-11-20T19:34:13;8.30;99.90
46340;DHT22;47273;49.274;8.708;2022-11-20T19:36:40;8.30;99.90
46340;DHT22;47273;49.274;8.708;2022-11-20T19:39:07;8.30;99.90
46340;DHT22;47273;49.274;8.708;2022-11-20T19:41:34;8.30;99.90
46340;DHT22;47273;49.274;8.708;2022-11-20T19:44:13;8.30;99.90
46340;DHT22;47273;49.274;8.708;2022-11-20T19:46:40;8.20;99.90
46340;DHT22;47273;49.274;8.708;2022-11-20T19:49:07;8.20;99.90
46340;DHT22;47273;49.274;8.708;2022-11-20T19:51:35;8.20;99.90
46340;DHT22;47273;49.274;8.708;2022-11-20T19:54:02;8.10;99.90
46340;DHT22;47273;49.274;8.708;2022-11-20T19:56:29;8.10;99.90
46340;DHT22;47273;49.274;8.708;2022-11-20T19:58:56;8.20;99.90
46340;DHT22;47273;49.274;8.708;2022-11-20T20:01:24;8.20;99.90
46340;DHT22;47273;49.274;8.708;2022-11-20T20:03:50;8.10;99.90
46340;DHT22;47273;49.274;8.708;2022-11-20T20:06:18;8.20;99.90
46340;DHT22;47273;49.274;8.708;2022-11-20T20:08:45;8.20;99.90
46340;DHT22;47273;49.274;8.708;2022-11-20T20:11:18;8.20;99.90
46340;DHT22;47273;49.274;8.708;2022-11-20T20:13:45;8.10;99.90
46340;DHT22;47273;49.274;8.708;2022-11-20T20:16:13;8.10;99.90
46340;DHT22;47273;49.274;8.708;2022-11-20T20:18:39;8.10;99.90
46340;DHT22;47273;49.274;8.708;2022-11-20T20:21:08;8.10;99.90
46340;DHT22;47273;49.274;8.708;2022-11-20T20:23:34;8.10;99.90
46340;DHT22;47273;49.274;8.708;2022-11-20T20:26:00;8.00;99.90
46340;DHT22;47273;49.274;8.708;2022-11-20T20:28:27;8.00;99.90
46340;DHT22;47273;49.274;8.708;2022-11-20T20:30:53;8.00;99.90
46340;DHT22;47273;49.274;8.708;2022-11-20T20:33:19;8.00;99.90
46340;DHT22;47273;49.274;8.708;2022-11-20T20:35:45;8.00;99.90
46340;DHT22;47273;49.274;8.708;2022-11-20T20:38:10;8.00;99.90
46340;DHT22;47273;49.274;8.708;2022-11-20T20:40:36;8.00;99.90
46340;DHT22;47273;49.274;8.708;2022-11-20T20:43:03;8.00;99.90
46340;DHT22;47273;49.274;8.708;2022-11-20T20:45:28;8.00;99.90
46340;DHT22;47273;49.274;8.708;2022-11-20T20:47:54;8.00;99.90
46340;DHT22;47273;49.274;8.708;2022-11-20T20:50:20;8.00;99.90
46340;DHT22;47273;49.274;8.708;2022-11-20T20:52:46;8.10;99.90
46340;DHT22;47273;49.274;8.708;2022-11-20T20:55:12;8.30;99.90
46340;DHT22;47273;49.274;8.708;2022-11-20T20:57:38;8.40;99.90
46340;DHT22;47273;49.274;8.708;2022-11-20T21:00:05;8.50;99.90
46340;DHT22;47273;49.274;8.708;2022-11-20T21:02:31;8.40;99.90
46340;DHT22;47273;49.274;8.708;2022-11-20T21:04:56;8.50;99.90
46340;DHT22;47273;49.274;8.708;2022-11-20T21:07:24;8.50;99.90
46340;DHT22;47273;49.274;8.708;2022-11-20T21:09:49;8.50;99.90
46340;DHT22;47273;49.274;8.708;2022-11-20T21:12:15;8.50;99.90
46340;DHT22;47273;49.274;8.708;2022-11-20T21:14:41;8.50;99.90
46340;DHT22;47273;49.274;8.708;2022-11-20T21:17:06;8.50;99.90
46340;DHT22;47273;49.274;8.708;2022-11-20T21:19:32;8.40;99.90
46340;DHT22;47273;49.274;8.708;2022-11-20T21:21:58;8.40;99.90
46340;DHT22;47273;49.274;8.708;2022-11-20T21:24:34;8.40;99.90
46340;DHT22;47273;49.274;8.708;2022-11-20T21:27:01;8.40;99.90
46340;DHT22;47273;49.274;8.708;2022-11-20T21:29:28;8.40;99.90
46340;DHT22;47273;49.274;8.708;2022-11-20T21:31:55;8.40;99.90
46340;DHT22;47273;49.274;8.708;2022-11-20T21:34:21;8.40;99.90
46340;DHT22;47273;49.274;8.708;2022-11-20T21:36:47;8.40;99.90
46340;DHT22;47273;49.274;8.708;2022-11-20T21:39:14;8.40;99.90
46340;DHT22;47273;49.274;8.708;2022-11-20T21:41:40;8.30;99.90
46340;DHT22;47273;49.274;8.708;2022-11-20T21:44:08;8.30;99.90
46340;DHT22;47273;49.274;8.708;2022-11-20T21:46:37;8.30;99.90
46340;DHT22;47273;49.274;8.708;2022-11-20T21:49:03;8.20;99.90
46340;DHT22;47273;49.274;8.708;2022-11-20T21:51:29;8.20;99.90
46340;DHT22;47273;49.274;8.708;2022-11-20T21:53:55;8.30;99.90
46340;DHT22;47273;49.274;8.708;2022-11-20T21:56:24;8.20;99.90
46340;DHT22;47273;49.274;8.708;2022-11-20T21:58:50;8.30;99.90
46340;DHT22;47273;49.274;8.708;2022-11-20T22:01:28;8.20;99.90
46340;DHT22;47273;49.274;8.708;2022-11-20T22:03:56;8.30;99.90
46340;DHT22;47273;49.274;8.708;2022-11-20T22:06:23;8.20;99.90
46340;DHT22;47273;49.274;8.708;2022-11-20T22:08:49;8.20;99.90
46340;DHT22;47273;49.274;8.708;2022-11-20T22:11:17;8.20;99.90
46340;DHT22;47273;49.274;8.708;2022-11-20T22:13:44;8.20;99.90
46340;DHT22;47273;49.274;8.708;2022-11-20T22:16:28;8.20;99.90
46340;DHT22;47273;49.274;8.708;2022-11-20T22:18:55;8.20;99.90
46340;DHT22;47273;49.274;8.708;2022-11-20T22:21:23;8.20;99.90
46340;DHT22;47273;49.274;8.708;2022-11-20T22:23:50;8.20;99.90
46340;DHT22;47273;49.274;8.708;2022-11-20T22:26:22;8.20;99.90
46340;DHT22;47273;49.274;8.708;2022-11-20T22:28:50;8.20;99.90
46340;DHT22;47273;49.274;8.708;2022-11-20T22:31:17;8.20;99.90
46340;DHT22;47273;49.274;8.708;2022-11-20T22:33:43;8.30;99.90
46340;DHT22;47273;49.274;8.708;2022-11-20T22:38:36;8.20;99.90
46340;DHT22;47273;49.274;8.708;2022-11-20T22:43:34;8.30;99.90